Time;durP1;ratioP1;P1;durP2;ratioP2;P2;SDS_P1;SDS_P2;PMS_P1;PMS_P2;Temp;Humidity;BMP_temperature;BMP_pressure;BME280_temperature;BME280_humidity;BME280_pressure;Samples;Min_cycle;Max_cycle;Signal;HPM_P1;HPM_P2
2023/10/31 00:00:19;;;;;;;18.15;10.82;;;;;;;;;;1036442;28;20064;-65
2023/10/31 00:01:10;;;;;;;17.38;10.10;;;;;;;;;;1038164;28;20490;-65
2023/10/31 00:01:40;;;;;;;21.00;10.48;;;;;;;;;;1037254;28;21969;-65
2023/10/31 00:02:11;;;;;;;16.70;10.50;;;;;;;;;;1037143;28;20050;-65
2023/10/31 00:02:41;;;;;;;24.42;12.57;;;;;;;;;;1036805;28;20081;-64
2023/10/31 00:03:12;;;;;;;18.88;11.88;;;;;;;;;;1038381;28;20033;-65
2023/10/31 00:03:44;;;;;;;17.13;10.77;;;;;;;;;;1037163;28;20046;-65
2023/10/31 00:04:15;;;;;;;20.83;10.80;;;;;;;;;;1038051;28;20060;-65
2023/10/31 00:04:46;;;;;;;20.38;10.85;;;;;;;;;;1035571;28;20056;-66
2023/10/31 00:05:16;;;;;;;17.48;11.70;;;;;;;;;;1038334;28;20442;-65
2023/10/31 00:05:47;;;;;;;16.90;10.65;;;;;;;;;;1037271;28;20053;-64
2023/10/31 00:06:17;;;;;;;18.33;11.45;;;;;;;;;;1037946;28;20057;-65
2023/10/31 00:06:48;;;;;;;18.20;10.52;;;;;;;;;;1037263;28;20057;-65
2023/10/31 00:07:18;;;;;;;17.80;10.82;;;;;;;;;;1038457;28;20049;-65
2023/10/31 00:07:49;;;;;;;23.70;10.27;;;;;;;;;;1038141;28;20103;-65
2023/10/31 00:08:19;;;;;;;17.02;9.68;;;;;;;;;;1038245;28;20058;-65
2023/10/31 00:08:50;;;;;;;14.38;9.93;;;;;;;;;;1037443;28;20123;-65
2023/10/31 00:09:21;;;;;;;20.17;10.25;;;;;;;;;;1035526;28;20060;-65
2023/10/31 00:09:51;;;;;;;16.77;10.25;;;;;;;;;;1038538;28;20061;-65
2023/10/31 00:10:22;;;;;;;21.00;10.55;;;;;;;;;;1036989;28;20152;-65
2023/10/31 00:10:52;;;;;;;18.48;10.88;;;;;;;;;;1037714;28;20057;-65
2023/10/31 00:11:22;;;;;;;19.02;10.52;;;;;;;;;;1036648;28;20057;-65
2023/10/31 00:11:53;;;;;;;18.05;9.93;;;;;;;;;;1036644;28;20057;-65
2023/10/31 00:12:24;;;;;;;19.27;10.77;;;;;;;;;;1038115;28;20536;-65
2023/10/31 00:12:54;;;;;;;21.70;11.00;;;;;;;;;;1038250;28;20075;-65
2023/10/31 00:13:25;;;;;;;19.45;11.18;;;;;;;;;;1037335;28;20103;-65
2023/10/31 00:13:55;;;;;;;14.80;10.50;;;;;;;;;;1038102;28;20041;-65
2023/10/31 00:14:26;;;;;;;15.70;9.77;;;;;;;;;;1037836;28;20057;-65
2023/10/31 00:14:56;;;;;;;15.70;10.43;;;;;;;;;;1037901;28;20038;-65
2023/10/31 00:15:29;;;;;;;19.48;10.02;;;;;;;;;;1037157;28;20584;-65
2023/10/31 00:15:59;;;;;;;17.88;10.13;;;;;;;;;;1037618;28;20045;-65
2023/10/31 00:16:30;;;;;;;17.88;10.32;;;;;;;;;;1038067;28;20117;-65
2023/10/31 00:17:00;;;;;;;15.73;9.55;;;;;;;;;;1037760;28;20061;-65
2023/10/31 00:17:31;;;;;;;16.45;10.07;;;;;;;;;;1037837;28;20053;-65
2023/10/31 00:18:01;;;;;;;18.48;10.05;;;;;;;;;;1038218;28;20049;-65
2023/10/31 00:18:32;;;;;;;17.98;10.15;;;;;;;;;;1036900;28;20151;-65
2023/10/31 00:19:02;;;;;;;20.42;9.88;;;;;;;;;;1037690;28;20107;-65
2023/10/31 00:19:33;;;;;;;17.98;10.35;;;;;;;;;;1037457;28;20048;-65
2023/10/31 00:20:05;;;;;;;19.73;10.98;;;;;;;;;;1037899;28;20064;-65
2023/10/31 00:20:35;;;;;;;16.23;10.00;;;;;;;;;;1038091;28;20060;-65
2023/10/31 00:21:06;;;;;;;17.00;10.63;;;;;;;;;;1038055;28;20049;-65
2023/10/31 00:21:36;;;;;;;19.27;10.40;;;;;;;;;;1037787;28;20056;-65
2023/10/31 00:22:07;;;;;;;20.45;10.02;;;;;;;;;;1037146;28;20756;-64
2023/10/31 00:22:37;;;;;;;18.35;9.63;;;;;;;;;;1037841;28;20060;-66
2023/10/31 00:23:08;;;;;;;16.63;10.05;;;;;;;;;;1038773;28;20122;-65
2023/10/31 00:23:43;;;;;;;17.08;9.88;;;;;;;;;;1034772;28;20050;-65
2023/10/31 00:24:14;;;;;;;17.02;9.95;;;;;;;;;;1037818;28;20054;-65
2023/10/31 00:24:44;;;;;;;18.45;10.55;;;;;;;;;;1037682;28;20088;-65
2023/10/31 00:25:15;;;;;;;17.40;10.30;;;;;;;;;;1037992;28;20061;-65
2023/10/31 00:25:45;;;;;;;19.55;10.27;;;;;;;;;;1037927;28;20476;-66
2023/10/31 00:26:16;;;;;;;21.40;10.23;;;;;;;;;;1037029;28;20045;-64
2023/10/31 00:26:47;;;;;;;19.80;9.95;;;;;;;;;;1037395;28;20049;-65
2023/10/31 00:27:18;;;;;;;17.65;10.27;;;;;;;;;;1038212;28;20474;-65
2023/10/31 00:27:48;;;;;;;15.65;9.85;;;;;;;;;;1037487;28;20068;-65
2023/10/31 00:28:19;;;;;;;18.65;9.75;;;;;;;;;;1038417;28;20057;-65
2023/10/31 00:28:49;;;;;;;17.70;9.88;;;;;;;;;;1037873;28;20049;-65
2023/10/31 00:29:20;;;;;;;19.88;11.15;;;;;;;;;;1037822;28;20540;-65
2023/10/31 00:29:50;;;;;;;19.27;9.98;;;;;;;;;;1037057;28;20049;-65
2023/10/31 00:30:21;;;;;;;18.15;9.93;;;;;;;;;;1037721;28;20426;-65
2023/10/31 00:30:51;;;;;;;17.42;9.32;;;;;;;;;;1038822;28;20057;-65
2023/10/31 00:31:22;;;;;;;15.35;9.60;;;;;;;;;;1037363;28;20080;-65
2023/10/31 00:31:53;;;;;;;16.00;9.15;;;;;;;;;;1037662;28;20475;-65
2023/10/31 00:32:25;;;;;;;17.90;10.27;;;;;;;;;;1037379;28;20061;-65
2023/10/31 00:32:56;;;;;;;16.63;9.88;;;;;;;;;;1038237;28;20076;-65
2023/10/31 00:33:27;;;;;;;14.35;9.73;;;;;;;;;;1036556;28;20049;-65
2023/10/31 00:33:57;;;;;;;15.25;9.85;;;;;;;;;;1038588;28;20844;-65
2023/10/31 00:34:28;;;;;;;13.95;9.68;;;;;;;;;;1035053;28;20573;-65
2023/10/31 00:34:59;;;;;;;17.83;9.75;;;;;;;;;;1037997;28;20064;-65
2023/10/31 00:35:30;;;;;;;15.02;9.55;;;;;;;;;;1037098;28;20076;-65
2023/10/31 00:36:01;;;;;;;13.35;8.88;;;;;;;;;;1037203;28;20057;-65
2023/10/31 00:36:32;;;;;;;15.98;8.93;;;;;;;;;;1035850;28;20069;-65
2023/10/31 00:37:02;;;;;;;17.30;10.45;;;;;;;;;;1038625;28;20103;-65
2023/10/31 00:37:33;;;;;;;15.75;9.57;;;;;;;;;;1038645;28;20080;-65
2023/10/31 00:38:03;;;;;;;25.83;9.95;;;;;;;;;;1037780;28;20091;-64
2023/10/31 00:38:34;;;;;;;14.50;9.65;;;;;;;;;;1037741;28;20076;-65
2023/10/31 00:39:04;;;;;;;19.23;9.07;;;;;;;;;;1038156;28;20053;-65
2023/10/31 00:39:34;;;;;;;14.50;9.27;;;;;;;;;;1037079;28;20132;-65
2023/10/31 00:40:07;;;;;;;18.13;9.82;;;;;;;;;;1036213;28;20168;-65
2023/10/31 00:40:37;;;;;;;16.83;9.32;;;;;;;;;;1036925;28;20871;-65
2023/10/31 00:41:07;;;;;;;13.20;8.70;;;;;;;;;;1038334;28;20881;-65
2023/10/31 00:41:39;;;;;;;15.77;10.02;;;;;;;;;;1037576;28;20049;-65
2023/10/31 00:42:09;;;;;;;15.32;9.70;;;;;;;;;;1041347;28;20048;-65
2023/10/31 00:42:41;;;;;;;17.10;9.75;;;;;;;;;;1038402;28;20049;-65
2023/10/31 00:43:12;;;;;;;17.02;9.82;;;;;;;;;;1038207;28;20053;-65
2023/10/31 00:43:42;;;;;;;15.60;9.38;;;;;;;;;;1037551;28;20045;-65
2023/10/31 00:44:13;;;;;;;15.38;9.65;;;;;;;;;;1037093;28;20521;-65
2023/10/31 00:44:44;;;;;;;16.88;9.93;;;;;;;;;;1036775;28;20068;-65
2023/10/31 00:45:14;;;;;;;17.83;9.95;;;;;;;;;;1037628;28;20049;-66
2023/10/31 00:45:45;;;;;;;15.75;8.95;;;;;;;;;;1037723;28;20445;-65
2023/10/31 00:46:15;;;;;;;16.50;9.95;;;;;;;;;;1037230;28;20056;-65
2023/10/31 00:46:46;;;;;;;18.30;9.15;;;;;;;;;;1037136;28;20084;-65
2023/10/31 00:47:17;;;;;;;17.98;9.80;;;;;;;;;;1035484;28;20056;-65
2023/10/31 00:47:48;;;;;;;15.80;9.88;;;;;;;;;;1038381;28;20053;-66
2023/10/31 00:48:19;;;;;;;15.27;10.10;;;;;;;;;;1036560;28;20049;-65
2023/10/31 00:48:49;;;;;;;18.08;9.93;;;;;;;;;;1036015;28;20050;-66
2023/10/31 00:49:20;;;;;;;17.73;9.50;;;;;;;;;;1037791;28;20088;-65
2023/10/31 00:49:52;;;;;;;14.57;9.57;;;;;;;;;;1038452;28;20049;-65
2023/10/31 00:50:23;;;;;;;16.90;10.13;;;;;;;;;;1037319;28;20053;-65
2023/10/31 00:50:53;;;;;;;16.08;9.65;;;;;;;;;;1038123;28;20054;-65
2023/10/31 00:51:24;;;;;;;16.55;9.40;;;;;;;;;;1038218;28;20053;-65
2023/10/31 00:51:54;;;;;;;16.75;9.32;;;;;;;;;;1037077;28;20055;-65
2023/10/31 00:52:25;;;;;;;21.38;9.90;;;;;;;;;;1035587;28;20462;-65
2023/10/31 00:52:56;;;;;;;19.08;10.20;;;;;;;;;;1038876;28;20049;-65
2023/10/31 00:53:26;;;;;;;16.90;9.27;;;;;;;;;;1037923;28;20045;-65
2023/10/31 00:53:56;;;;;;;19.00;10.27;;;;;;;;;;1037991;28;20052;-65
2023/10/31 00:54:27;;;;;;;15.18;9.15;;;;;;;;;;1035827;28;20147;-65
2023/10/31 00:54:57;;;;;;;15.65;9.73;;;;;;;;;;1038551;28;20678;-65
2023/10/31 00:55:28;;;;;;;21.08;10.00;;;;;;;;;;1037735;28;20053;-65
2023/10/31 00:55:58;;;;;;;16.15;9.38;;;;;;;;;;1035544;28;20084;-65
2023/10/31 00:56:29;;;;;;;12.73;8.88;;;;;;;;;;1036476;28;20495;-64
2023/10/31 00:57:00;;;;;;;16.45;9.48;;;;;;;;;;1037123;28;20049;-65
2023/10/31 00:57:30;;;;;;;14.40;9.38;;;;;;;;;;1037538;28;20448;-66
2023/10/31 00:58:01;;;;;;;16.20;9.00;;;;;;;;;;1037071;28;20469;-65
2023/10/31 00:58:31;;;;;;;15.75;9.55;;;;;;;;;;1037192;28;20387;-65
2023/10/31 00:59:02;;;;;;;16.13;9.35;;;;;;;;;;1037609;28;20052;-65
2023/10/31 00:59:32;;;;;;;15.68;9.52;;;;;;;;;;1038356;28;20135;-65
2023/10/31 01:00:03;;;;;;;19.23;8.90;;;;;;;;;;1037830;28;20069;-65
2023/10/31 01:00:34;;;;;;;19.30;9.80;;;;;;;;;;1037361;28;20057;-65
2023/10/31 01:01:04;;;;;;;17.90;9.50;;;;;;;;;;1037474;28;20052;-66
2023/10/31 01:01:35;;;;;;;18.02;9.18;;;;;;;;;;1037844;28;20073;-66
2023/10/31 01:02:06;;;;;;;17.70;8.50;;;;;;;;;;1036685;28;20063;-65
2023/10/31 01:02:36;;;;;;;15.45;9.57;;;;;;;;;;1037601;28;20049;-65
2023/10/31 01:03:07;;;;;;;14.50;9.48;;;;;;;;;;1038571;28;20041;-65
2023/10/31 01:03:37;;;;;;;16.40;9.30;;;;;;;;;;1037005;28;20107;-64
2023/10/31 01:04:08;;;;;;;15.70;9.68;;;;;;;;;;1037761;28;20072;-65
2023/10/31 01:04:39;;;;;;;20.02;9.65;;;;;;;;;;1036800;28;20401;-65
2023/10/31 01:05:10;;;;;;;16.63;9.38;;;;;;;;;;1038654;28;20052;-66
2023/10/31 01:05:41;;;;;;;13.40;8.52;;;;;;;;;;1036795;28;20076;-65
2023/10/31 01:06:11;;;;;;;15.77;9.40;;;;;;;;;;1038867;28;20053;-65
2023/10/31 01:06:42;;;;;;;17.88;9.40;;;;;;;;;;1037553;28;20484;-65
2023/10/31 01:07:16;;;;;;;12.50;9.07;;;;;;;;;;1038499;28;20053;-65
2023/10/31 01:07:47;;;;;;;18.52;9.00;;;;;;;;;;1036527;28;20151;-65
2023/10/31 01:08:17;;;;;;;17.52;9.23;;;;;;;;;;1037253;28;20684;-65
2023/10/31 01:08:48;;;;;;;18.92;8.77;;;;;;;;;;1036594;28;20045;-65
2023/10/31 01:09:18;;;;;;;17.23;9.18;;;;;;;;;;1038033;28;20049;-65
2023/10/31 01:09:49;;;;;;;14.38;9.80;;;;;;;;;;1038372;28;20049;-65
2023/10/31 01:10:20;;;;;;;14.93;9.23;;;;;;;;;;1037541;28;20057;-65
2023/10/31 01:10:50;;;;;;;15.40;9.25;;;;;;;;;;1037779;28;20095;-65
2023/10/31 01:11:21;;;;;;;15.20;8.90;;;;;;;;;;1037862;28;20067;-65
2023/10/31 01:11:51;;;;;;;19.65;9.07;;;;;;;;;;1037169;28;20135;-65
2023/10/31 01:12:22;;;;;;;19.27;9.65;;;;;;;;;;1037904;28;20045;-65
2023/10/31 01:12:52;;;;;;;11.80;8.73;;;;;;;;;;1038770;28;20045;-65
2023/10/31 01:13:23;;;;;;;15.00;9.23;;;;;;;;;;1037860;28;20089;-66
2023/10/31 01:13:53;;;;;;;16.50;9.23;;;;;;;;;;1037949;28;20104;-65
2023/10/31 01:14:24;;;;;;;14.85;8.60;;;;;;;;;;1037612;28;20049;-66
2023/10/31 01:14:55;;;;;;;16.33;8.90;;;;;;;;;;1038467;28;20045;-65
2023/10/31 01:15:25;;;;;;;14.80;8.98;;;;;;;;;;1036682;28;20152;-65
2023/10/31 01:15:55;;;;;;;16.67;8.65;;;;;;;;;;1037298;28;20049;-65
2023/10/31 01:16:26;;;;;;;13.88;8.35;;;;;;;;;;1036382;28;20049;-65
2023/10/31 01:16:57;;;;;;;18.85;9.20;;;;;;;;;;1038361;28;20073;-65
2023/10/31 01:17:27;;;;;;;16.08;9.50;;;;;;;;;;1038333;28;20398;-65
2023/10/31 01:17:58;;;;;;;15.93;8.98;;;;;;;;;;1037037;28;20554;-65
2023/10/31 01:18:28;;;;;;;15.60;9.10;;;;;;;;;;1037715;28;20143;-65
2023/10/31 01:18:59;;;;;;;17.00;8.95;;;;;;;;;;1037578;28;20112;-65
2023/10/31 01:19:29;;;;;;;17.70;9.18;;;;;;;;;;1037878;28;20060;-65
2023/10/31 01:20:00;;;;;;;15.10;8.98;;;;;;;;;;1037044;28;20053;-65
2023/10/31 01:20:30;;;;;;;15.35;8.98;;;;;;;;;;1038248;28;20045;-65
2023/10/31 01:21:01;;;;;;;15.38;8.57;;;;;;;;;;1037949;28;20124;-65
2023/10/31 01:21:31;;;;;;;16.55;9.02;;;;;;;;;;1037697;28;20096;-65
2023/10/31 01:22:02;;;;;;;17.20;8.98;;;;;;;;;;1038280;28;20053;-65
2023/10/31 01:22:32;;;;;;;14.55;8.90;;;;;;;;;;1037141;28;20049;-65
2023/10/31 01:23:03;;;;;;;14.63;9.50;;;;;;;;;;1038261;28;20056;-65
2023/10/31 01:23:34;;;;;;;15.35;7.97;;;;;;;;;;1036995;28;20049;-65
2023/10/31 01:24:04;;;;;;;12.80;8.20;;;;;;;;;;1038420;28;20095;-65
2023/10/31 01:24:35;;;;;;;15.05;9.23;;;;;;;;;;1037568;28;20068;-65
2023/10/31 01:25:06;;;;;;;18.25;9.35;;;;;;;;;;1038398;28;20073;-65
2023/10/31 01:25:36;;;;;;;15.93;8.55;;;;;;;;;;1034867;28;20054;-65
2023/10/31 01:26:07;;;;;;;16.27;9.02;;;;;;;;;;1038236;28;20176;-65
2023/10/31 01:26:37;;;;;;;15.60;8.63;;;;;;;;;;1037037;28;20072;-65
2023/10/31 01:27:08;;;;;;;15.80;9.15;;;;;;;;;;1038178;28;20049;-65
2023/10/31 01:27:38;;;;;;;15.85;8.55;;;;;;;;;;1036640;28;20624;-65
2023/10/31 01:28:09;;;;;;;14.23;8.35;;;;;;;;;;1037477;28;20046;-65
2023/10/31 01:28:39;;;;;;;15.30;9.05;;;;;;;;;;1036503;28;20057;-65
2023/10/31 01:29:10;;;;;;;18.08;9.45;;;;;;;;;;1037831;28;20053;-65
2023/10/31 01:29:40;;;;;;;17.90;8.70;;;;;;;;;;1037439;28;20056;-65
2023/10/31 01:30:11;;;;;;;12.35;8.13;;;;;;;;;;1037061;28;20724;-65
2023/10/31 01:30:42;;;;;;;20.23;8.48;;;;;;;;;;1037223;28;20049;-65
2023/10/31 01:31:13;;;;;;;14.77;9.27;;;;;;;;;;1038375;28;20054;-65
2023/10/31 01:31:43;;;;;;;14.45;8.27;;;;;;;;;;1036330;28;20132;-65
2023/10/31 01:32:14;;;;;;;12.02;8.85;;;;;;;;;;1035887;28;20057;-65
2023/10/31 01:32:45;;;;;;;15.20;9.00;;;;;;;;;;1037803;28;20053;-65
2023/10/31 01:33:16;;;;;;;13.20;8.85;;;;;;;;;;1037427;28;20041;-65
2023/10/31 01:33:46;;;;;;;17.83;9.70;;;;;;;;;;1036038;28;20100;-65
2023/10/31 01:34:17;;;;;;;15.48;8.48;;;;;;;;;;1036776;28;20132;-65
2023/10/31 01:34:47;;;;;;;14.35;8.77;;;;;;;;;;1038338;28;20119;-65
2023/10/31 01:35:18;;;;;;;14.93;8.65;;;;;;;;;;1037851;28;20053;-65
2023/10/31 01:35:48;;;;;;;19.90;9.40;;;;;;;;;;1036626;28;20049;-65
2023/10/31 01:36:19;;;;;;;14.57;8.95;;;;;;;;;;1036749;28;20050;-65
2023/10/31 01:36:49;;;;;;;17.38;9.13;;;;;;;;;;1035602;28;20126;-65
2023/10/31 01:37:21;;;;;;;20.05;9.35;;;;;;;;;;1037948;28;20433;-65
2023/10/31 01:37:51;;;;;;;16.38;8.43;;;;;;;;;;1037715;28;20046;-65
2023/10/31 01:38:22;;;;;;;15.80;8.73;;;;;;;;;;1037308;28;20060;-65
2023/10/31 01:38:52;;;;;;;14.02;8.75;;;;;;;;;;1038247;28;20049;-65
2023/10/31 01:39:23;;;;;;;14.68;8.88;;;;;;;;;;1037406;28;20059;-65
2023/10/31 01:39:54;;;;;;;18.52;9.68;;;;;;;;;;1035988;28;20065;-65
2023/10/31 01:40:24;;;;;;;16.15;9.32;;;;;;;;;;1036348;28;20112;-65
2023/10/31 01:40:55;;;;;;;15.40;8.65;;;;;;;;;;1037296;28;20406;-65
2023/10/31 01:41:26;;;;;;;15.13;8.95;;;;;;;;;;1037010;28;20048;-65
2023/10/31 01:41:56;;;;;;;16.48;8.88;;;;;;;;;;1038343;28;20559;-65
2023/10/31 01:42:27;;;;;;;15.00;9.15;;;;;;;;;;1037646;28;20048;-65
2023/10/31 01:42:57;;;;;;;13.30;9.23;;;;;;;;;;1037390;28;20053;-65
2023/10/31 01:43:36;;;;;;;16.73;8.85;;;;;;;;;;1036564;28;20144;-65
2023/10/31 01:44:06;;;;;;;16.25;9.52;;;;;;;;;;1037529;28;20149;-65
2023/10/31 01:44:37;;;;;;;18.10;8.40;;;;;;;;;;1036827;28;20052;-65
2023/10/31 01:45:08;;;;;;;15.35;9.13;;;;;;;;;;1035864;28;20053;-65
2023/10/31 01:45:39;;;;;;;13.60;8.85;;;;;;;;;;1035834;28;20156;-65
2023/10/31 01:46:09;;;;;;;21.35;10.93;;;;;;;;;;1036928;28;20049;-65
2023/10/31 01:46:40;;;;;;;15.65;9.02;;;;;;;;;;1035767;28;20135;-65
2023/10/31 01:47:10;;;;;;;16.80;9.10;;;;;;;;;;1037702;28;20694;-65
2023/10/31 01:47:44;;;;;;;17.23;9.45;;;;;;;;;;1036541;28;20057;-65
2023/10/31 01:48:14;;;;;;;17.65;9.18;;;;;;;;;;1037153;28;20453;-65
2023/10/31 01:48:45;;;;;;;18.33;9.43;;;;;;;;;;1037948;28;20630;-65
2023/10/31 01:49:16;;;;;;;18.02;9.23;;;;;;;;;;1036303;28;20053;-65
2023/10/31 01:49:47;;;;;;;14.45;8.48;;;;;;;;;;1033296;28;20053;-65
2023/10/31 01:50:18;;;;;;;14.50;9.35;;;;;;;;;;1033334;28;20060;-65
2023/10/31 01:50:48;;;;;;;14.13;8.98;;;;;;;;;;1033766;28;20089;-65
2023/10/31 01:51:19;;;;;;;13.25;8.63;;;;;;;;;;1036574;28;20049;-65
2023/10/31 01:51:50;;;;;;;15.35;9.30;;;;;;;;;;1037458;28;20470;-65
2023/10/31 01:52:21;;;;;;;19.10;9.20;;;;;;;;;;1036411;28;20054;-65
2023/10/31 01:52:52;;;;;;;14.32;9.23;;;;;;;;;;1038550;28;20049;-65
2023/10/31 01:53:24;;;;;;;15.38;8.40;;;;;;;;;;1035233;28;20053;-65
2023/10/31 01:53:55;;;;;;;13.50;8.30;;;;;;;;;;1038174;28;20049;-65
2023/10/31 01:54:26;;;;;;;14.27;8.05;;;;;;;;;;1038056;28;20049;-65
2023/10/31 01:54:57;;;;;;;12.98;8.23;;;;;;;;;;1037232;28;20045;-65
2023/10/31 01:55:29;;;;;;;17.65;8.82;;;;;;;;;;1035174;28;20057;-65
2023/10/31 01:56:03;;;;;;;14.40;8.90;;;;;;;;;;1041203;28;20045;-65
2023/10/31 01:56:33;;;;;;;16.02;9.85;;;;;;;;;;1040608;28;20612;-65
2023/10/31 01:57:05;;;;;;;13.70;8.60;;;;;;;;;;1041336;28;20738;-65
2023/10/31 01:57:36;;;;;;;16.33;9.57;;;;;;;;;;1043256;28;20054;-65
2023/10/31 01:58:06;;;;;;;13.25;8.90;;;;;;;;;;1038222;28;20053;-65
2023/10/31 01:58:39;;;;;;;14.80;8.77;;;;;;;;;;1036336;28;20050;-65
2023/10/31 01:59:09;;;;;;;17.17;9.15;;;;;;;;;;1037019;28;20592;-65
2023/10/31 01:59:40;;;;;;;16.73;8.85;;;;;;;;;;1033970;28;20110;-65
2023/10/31 02:00:11;;;;;;;16.52;9.40;;;;;;;;;;1037048;28;20136;-65
2023/10/31 02:00:43;;;;;;;23.70;9.40;;;;;;;;;;1037167;28;20103;-65
2023/10/31 02:01:13;;;;;;;16.25;9.60;;;;;;;;;;1036648;28;20049;-65
2023/10/31 02:01:44;;;;;;;16.08;8.35;;;;;;;;;;1037343;28;20685;-65
2023/10/31 02:02:15;;;;;;;15.95;8.52;;;;;;;;;;1037449;28;20057;-65
2023/10/31 02:02:46;;;;;;;12.68;8.38;;;;;;;;;;1037794;28;20057;-66
2023/10/31 02:03:17;;;;;;;11.82;8.27;;;;;;;;;;1034390;28;20497;-65
2023/10/31 02:03:47;;;;;;;13.63;9.05;;;;;;;;;;1038300;28;20054;-65
2023/10/31 02:04:18;;;;;;;12.70;8.40;;;;;;;;;;1037341;28;20148;-65
2023/10/31 02:04:50;;;;;;;14.75;8.45;;;;;;;;;;1038206;28;20470;-65
2023/10/31 02:05:20;;;;;;;11.88;8.48;;;;;;;;;;1036301;28;20062;-65
2023/10/31 02:05:51;;;;;;;15.98;9.02;;;;;;;;;;1038056;28;20138;-65
2023/10/31 02:06:22;;;;;;;14.40;8.55;;;;;;;;;;1036203;28;20049;-65
2023/10/31 02:06:52;;;;;;;12.90;8.68;;;;;;;;;;1036933;28;20049;-65
2023/10/31 02:07:23;;;;;;;13.57;8.30;;;;;;;;;;1036613;28;20057;-65
2023/10/31 02:07:53;;;;;;;17.67;9.25;;;;;;;;;;1036830;28;20127;-65
2023/10/31 02:08:25;;;;;;;17.50;9.13;;;;;;;;;;1036199;28;20056;-65
2023/10/31 02:08:56;;;;;;;18.20;9.18;;;;;;;;;;1036440;28;20056;-65
2023/10/31 02:09:28;;;;;;;17.15;9.05;;;;;;;;;;1037638;28;20143;-65
2023/10/31 02:09:59;;;;;;;16.33;9.18;;;;;;;;;;1037666;28;20107;-65
2023/10/31 02:10:30;;;;;;;14.23;8.35;;;;;;;;;;1035409;28;20120;-65
2023/10/31 02:11:00;;;;;;;12.98;8.38;;;;;;;;;;1037732;28;20050;-65
2023/10/31 02:11:31;;;;;;;19.90;9.57;;;;;;;;;;1037834;28;20049;-65
2023/10/31 02:12:01;;;;;;;13.55;9.00;;;;;;;;;;1035982;28;20050;-65
2023/10/31 02:12:36;;;;;;;13.48;8.75;;;;;;;;;;1035534;28;20053;-65
2023/10/31 02:13:14;;;;;;;12.52;8.40;;;;;;;;;;1037391;28;20056;-64
2023/10/31 02:13:44;;;;;;;16.17;9.20;;;;;;;;;;1037303;28;20069;-65
2023/10/31 02:14:15;;;;;;;27.65;8.20;;;;;;;;;;1037327;28;20813;-65
2023/10/31 02:14:46;;;;;;;17.25;8.93;;;;;;;;;;1036851;28;20057;-65
2023/10/31 02:15:16;;;;;;;14.88;8.35;;;;;;;;;;1036621;28;20095;-65
2023/10/31 02:15:47;;;;;;;12.60;8.32;;;;;;;;;;1038162;28;20080;-65
2023/10/31 02:16:17;;;;;;;14.57;8.88;;;;;;;;;;1035298;28;20049;-65
2023/10/31 02:16:48;;;;;;;10.40;7.75;;;;;;;;;;1037646;28;20172;-65
2023/10/31 02:17:18;;;;;;;14.18;7.93;;;;;;;;;;1037116;28;20033;-65
2023/10/31 02:17:49;;;;;;;14.57;8.40;;;;;;;;;;1037977;28;20485;-65
2023/10/31 02:18:19;;;;;;;21.70;9.75;;;;;;;;;;1037196;28;20056;-65
2023/10/31 02:18:50;;;;;;;13.32;7.88;;;;;;;;;;1037294;28;20068;-65
2023/10/31 02:19:21;;;;;;;11.48;7.43;;;;;;;;;;1037097;28;20100;-65
2023/10/31 02:19:51;;;;;;;11.65;7.68;;;;;;;;;;1037428;28;20450;-65
2023/10/31 02:20:22;;;;;;;12.23;7.45;;;;;;;;;;1035812;28;20049;-65
2023/10/31 02:20:52;;;;;;;16.73;8.02;;;;;;;;;;1036364;28;20076;-65
2023/10/31 02:21:25;;;;;;;17.52;8.30;;;;;;;;;;1037478;28;20542;-65
2023/10/31 02:21:55;;;;;;;14.60;8.13;;;;;;;;;;1036743;28;22108;-65
2023/10/31 02:22:26;;;;;;;13.52;7.90;;;;;;;;;;1037949;28;20509;-65
2023/10/31 02:22:56;;;;;;;11.27;7.10;;;;;;;;;;1037633;28;20045;-65
2023/10/31 02:23:27;;;;;;;12.85;7.03;;;;;;;;;;1037445;28;20053;-66
2023/10/31 02:23:59;;;;;;;16.38;8.88;;;;;;;;;;1035952;28;20066;-65
2023/10/31 02:24:30;;;;;;;13.63;7.65;;;;;;;;;;1037176;28;20570;-65
2023/10/31 02:25:01;;;;;;;12.93;7.13;;;;;;;;;;1038042;28;20395;-65
2023/10/31 02:25:31;;;;;;;11.77;8.10;;;;;;;;;;1037509;28;20505;-65
2023/10/31 02:26:03;;;;;;;15.43;7.85;;;;;;;;;;1038051;28;20767;-65
2023/10/31 02:26:35;;;;;;;17.55;7.47;;;;;;;;;;1037513;28;20041;-65
2023/10/31 02:27:05;;;;;;;16.15;7.10;;;;;;;;;;1036696;28;20687;-65
2023/10/31 02:27:36;;;;;;;13.18;7.28;;;;;;;;;;1037210;28;20430;-65
2023/10/31 02:28:06;;;;;;;12.60;6.60;;;;;;;;;;1036357;28;20050;-65
2023/10/31 02:28:37;;;;;;;15.63;8.18;;;;;;;;;;1037162;28;20725;-65
2023/10/31 02:29:08;;;;;;;13.90;7.60;;;;;;;;;;1036735;28;20075;-66
2023/10/31 02:29:39;;;;;;;15.77;7.72;;;;;;;;;;1036156;28;20049;-65
2023/10/31 02:30:10;;;;;;;11.75;7.10;;;;;;;;;;1037764;28;20115;-65
2023/10/31 02:30:41;;;;;;;14.63;7.55;;;;;;;;;;1037617;28;20154;-65
2023/10/31 02:31:11;;;;;;;13.82;7.13;;;;;;;;;;1037511;28;20513;-66
2023/10/31 02:31:42;;;;;;;10.05;6.80;;;;;;;;;;1037269;28;20517;-65
2023/10/31 02:32:12;;;;;;;10.80;6.82;;;;;;;;;;1038115;28;20057;-65
2023/10/31 02:32:43;;;;;;;10.98;6.93;;;;;;;;;;1036997;28;20140;-65
2023/10/31 02:33:14;;;;;;;11.35;7.65;;;;;;;;;;1035573;28;20508;-65
2023/10/31 02:33:44;;;;;;;18.85;7.20;;;;;;;;;;1037968;28;20049;-65
2023/10/31 02:34:15;;;;;;;14.80;7.15;;;;;;;;;;1037661;28;20374;-65
2023/10/31 02:34:45;;;;;;;12.45;6.57;;;;;;;;;;1037063;28;20548;-65
2023/10/31 02:35:17;;;;;;;13.30;7.53;;;;;;;;;;1034247;28;20056;-65
2023/10/31 02:35:48;;;;;;;13.90;6.70;;;;;;;;;;1036912;28;20139;-65
2023/10/31 02:36:19;;;;;;;10.88;7.47;;;;;;;;;;1036265;28;20172;-65
2023/10/31 02:36:49;;;;;;;16.30;6.95;;;;;;;;;;1038187;28;20052;-66
2023/10/31 02:37:20;;;;;;;10.95;6.35;;;;;;;;;;1037958;28;20064;-65
2023/10/31 02:37:50;;;;;;;14.63;7.38;;;;;;;;;;1035533;28;20107;-65
2023/10/31 02:38:20;;;;;;;11.77;7.15;;;;;;;;;;1037348;28;20069;-65
2023/10/31 02:38:51;;;;;;;11.88;6.50;;;;;;;;;;1037777;28;20406;-65
2023/10/31 02:39:22;;;;;;;11.75;7.13;;;;;;;;;;1036051;28;20063;-65
2023/10/31 02:39:52;;;;;;;16.35;7.53;;;;;;;;;;1037028;28;20095;-65
2023/10/31 02:40:23;;;;;;;13.15;6.80;;;;;;;;;;1037167;28;20560;-66
2023/10/31 02:40:53;;;;;;;13.10;6.97;;;;;;;;;;1037300;28;20114;-65
2023/10/31 02:41:24;;;;;;;13.15;7.28;;;;;;;;;;1036546;28;20126;-65
2023/10/31 02:41:54;;;;;;;11.13;6.78;;;;;;;;;;1038003;28;20049;-65
2023/10/31 02:42:25;;;;;;;14.38;6.53;;;;;;;;;;1036916;28;20528;-65
2023/10/31 02:42:55;;;;;;;16.27;8.05;;;;;;;;;;1037846;28;20095;-65
2023/10/31 02:43:26;;;;;;;10.63;6.90;;;;;;;;;;1036857;28;20082;-65
2023/10/31 02:43:57;;;;;;;13.20;7.03;;;;;;;;;;1037547;28;20049;-65
2023/10/31 02:44:28;;;;;;;8.23;6.20;;;;;;;;;;1036152;28;20102;-65
2023/10/31 02:44:58;;;;;;;15.40;7.45;;;;;;;;;;1038242;28;20104;-65
2023/10/31 02:45:29;;;;;;;14.55;6.72;;;;;;;;;;1036263;28;20816;-65
2023/10/31 02:45:59;;;;;;;15.35;7.53;;;;;;;;;;1037757;28;20150;-65
2023/10/31 02:46:30;;;;;;;14.77;6.90;;;;;;;;;;1035230;28;20159;-65
2023/10/31 02:47:00;;;;;;;13.82;7.18;;;;;;;;;;1038070;28;20843;-65
2023/10/31 02:47:31;;;;;;;15.50;7.15;;;;;;;;;;1036391;28;20053;-65
2023/10/31 02:48:01;;;;;;;13.00;7.22;;;;;;;;;;1037487;28;20060;-65
2023/10/31 02:48:38;;;;;;;13.68;7.07;;;;;;;;;;1037538;28;20164;-65
2023/10/31 02:49:09;;;;;;;15.70;8.13;;;;;;;;;;1038142;28;20038;-65
2023/10/31 02:49:40;;;;;;;13.07;6.75;;;;;;;;;;1036879;28;20458;-65
2023/10/31 02:50:10;;;;;;;11.98;7.13;;;;;;;;;;1037898;28;20916;-66
2023/10/31 02:50:41;;;;;;;13.48;6.85;;;;;;;;;;1037174;28;20053;-65
2023/10/31 02:51:11;;;;;;;10.88;6.47;;;;;;;;;;1037734;28;20046;-65
2023/10/31 02:51:42;;;;;;;12.20;6.30;;;;;;;;;;1037049;28;20747;-65
2023/10/31 02:52:12;;;;;;;12.40;7.15;;;;;;;;;;1038138;28;20053;-65
2023/10/31 02:52:43;;;;;;;10.27;6.80;;;;;;;;;;1037276;28;20049;-65
2023/10/31 02:53:13;;;;;;;13.73;6.57;;;;;;;;;;1037218;28;20045;-65
2023/10/31 02:53:44;;;;;;;13.57;6.75;;;;;;;;;;1037570;28;20084;-65
2023/10/31 02:54:14;;;;;;;11.15;6.95;;;;;;;;;;1037277;28;20544;-65
2023/10/31 02:54:45;;;;;;;13.98;6.35;;;;;;;;;;1038469;28;20053;-65
2023/10/31 02:55:16;;;;;;;13.35;7.00;;;;;;;;;;1036786;28;20037;-64
2023/10/31 02:55:46;;;;;;;12.23;6.10;;;;;;;;;;1036510;28;20120;-65
2023/10/31 02:56:19;;;;;;;10.30;5.68;;;;;;;;;;1036628;28;20061;-65
2023/10/31 02:56:49;;;;;;;16.13;6.55;;;;;;;;;;1037276;28;20045;-65
2023/10/31 02:57:20;;;;;;;12.07;6.63;;;;;;;;;;1037321;28;20053;-65
2023/10/31 02:57:50;;;;;;;13.65;6.28;;;;;;;;;;1037344;28;20045;-65
2023/10/31 02:58:21;;;;;;;11.43;5.95;;;;;;;;;;1036073;28;20049;-65
2023/10/31 02:58:51;;;;;;;13.18;6.90;;;;;;;;;;1037563;28;20057;-65
2023/10/31 02:59:21;;;;;;;14.77;6.40;;;;;;;;;;1035781;28;20056;-65
2023/10/31 02:59:52;;;;;;;11.68;6.63;;;;;;;;;;1038127;28;20453;-65
2023/10/31 03:00:23;;;;;;;11.10;6.15;;;;;;;;;;1036666;28;20160;-65
2023/10/31 03:00:54;;;;;;;12.82;6.28;;;;;;;;;;1036588;28;20049;-65
2023/10/31 03:01:28;;;;;;;9.30;6.38;;;;;;;;;;1037374;28;20077;-65
2023/10/31 03:01:59;;;;;;;12.88;6.60;;;;;;;;;;1037182;28;20068;-65